createdAt,value
2018-03-15T00:37:58.592Z,17.07
2018-03-15T00:40:26.114Z,16.73
2018-03-15T00:42:53.642Z,16.10
2018-03-15T00:45:21.191Z,16.87
2018-03-15T00:47:48.725Z,17.30
2018-03-15T00:50:16.254Z,17.40
2018-03-15T00:52:43.797Z,17.27
2018-03-15T00:55:11.332Z,16.23
2018-03-15T00:57:38.859Z,16.60
2018-03-15T01:00:06.378Z,17.00
2018-03-15T01:02:33.914Z,17.30
2018-03-15T01:05:01.466Z,17.73
2018-03-15T01:07:28.997Z,16.93
2018-03-15T01:09:56.537Z,17.63
2018-03-15T01:12:24.082Z,17.50
2018-03-15T01:14:51.709Z,17.33
2018-03-15T01:17:19.225Z,17.37
2018-03-15T01:19:46.825Z,18.10
2018-03-15T01:22:14.402Z,18.10
2018-03-15T01:24:42.052Z,18.03
2018-03-15T01:27:09.610Z,17.73
2018-03-15T01:29:37.138Z,18.53
2018-03-15T01:32:04.665Z,19.33
2018-03-15T01:34:32.191Z,19.97
2018-03-15T01:36:59.745Z,20.00
2018-03-15T01:39:27.274Z,22.83
2018-03-15T01:41:54.875Z,21.60
2018-03-15T01:44:22.401Z,22.27
2018-03-15T01:46:49.959Z,21.67
2018-03-15T01:49:17.550Z,21.20
2018-03-15T01:51:45.072Z,21.13
2018-03-15T01:54:12.667Z,19.37
2018-03-15T01:56:40.218Z,20.23
2018-03-15T01:59:07.740Z,20.73
2018-03-15T02:01:35.353Z,19.97
2018-03-15T02:04:02.895Z,21.77
2018-03-15T02:06:30.439Z,20.67
2018-03-15T02:08:58.556Z,21.17
2018-03-15T02:11:26.085Z,21.13
2018-03-15T02:13:53.622Z,21.50
2018-03-15T02:16:21.154Z,21.80
2018-03-15T02:18:48.710Z,20.60
2018-03-15T02:21:16.343Z,19.90
2018-03-15T02:23:43.868Z,20.50
2018-03-15T02:26:11.390Z,20.10
2018-03-15T02:28:38.920Z,19.07
2018-03-15T02:31:06.480Z,20.07
2018-03-15T02:33:34.026Z,21.60
2018-03-15T02:36:01.592Z,19.07
2018-03-15T02:38:29.129Z,20.20
2018-03-15T02:40:56.723Z,19.53
2018-03-15T02:43:24.266Z,19.77
2018-03-15T02:45:51.842Z,20.80
2018-03-15T02:48:19.381Z,18.70
2018-03-15T02:50:46.956Z,18.70
2018-03-15T02:53:14.487Z,20.07
2018-03-15T02:55:42.015Z,20.17
2018-03-15T02:58:09.600Z,19.53
2018-03-15T03:00:37.129Z,21.03
2018-03-15T03:03:04.788Z,21.70
2018-03-15T03:05:32.326Z,19.90
2018-03-15T03:07:59.861Z,19.67
2018-03-15T03:10:27.441Z,19.83
2018-03-15T03:12:55.001Z,19.73
2018-03-15T03:15:22.532Z,19.67
2018-03-15T03:17:50.124Z,18.10
2018-03-15T03:20:17.649Z,18.10
2018-03-15T03:22:45.169Z,17.43
2018-03-15T03:25:12.686Z,17.00
2018-03-15T03:27:40.260Z,18.53
2018-03-15T03:30:07.801Z,18.30
2018-03-15T03:32:35.333Z,17.23
2018-03-15T03:35:02.950Z,17.33
2018-03-15T03:37:30.475Z,18.10
2018-03-15T03:39:58.018Z,17.70
2018-03-15T03:42:25.561Z,17.40
2018-03-15T03:44:53.105Z,16.77
2018-03-15T03:47:20.674Z,18.20
2018-03-15T03:49:48.262Z,16.67
2018-03-15T03:52:15.785Z,17.00
2018-03-15T03:54:43.312Z,17.10
2018-03-15T03:57:10.843Z,17.53
2018-03-15T03:59:38.370Z,17.87
2018-03-15T04:02:05.993Z,17.70
2018-03-15T04:04:33.526Z,17.80
2018-03-15T04:07:01.120Z,18.03
2018-03-15T04:09:28.645Z,17.63
2018-03-15T04:11:56.260Z,17.87
2018-03-15T04:14:23.798Z,18.13
2018-03-15T04:16:51.344Z,17.03
2018-03-15T04:19:18.880Z,17.87
2018-03-15T04:21:46.407Z,19.13
2018-03-15T04:24:13.940Z,18.03
2018-03-15T04:26:41.498Z,18.47
2018-03-15T04:29:09.038Z,17.73
2018-03-15T04:31:36.559Z,18.80
2018-03-15T04:34:04.089Z,16.90
2018-03-15T04:36:31.634Z,18.03
2018-03-15T04:38:59.178Z,18.37
2018-03-15T04:41:26.722Z,18.30
2018-03-15T04:43:54.254Z,18.17
2018-03-15T04:46:21.859Z,18.90
2018-03-15T04:48:49.404Z,18.87
2018-03-15T04:51:16.994Z,18.43
2018-03-15T04:53:44.528Z,18.97
2018-03-15T04:56:12.114Z,18.33
2018-03-15T04:58:39.657Z,19.73
2018-03-15T05:01:07.189Z,19.53
2018-03-15T05:03:34.721Z,18.83
2018-03-15T05:06:02.270Z,19.47
2018-03-15T05:08:29.915Z,19.73
2018-03-15T05:10:57.442Z,19.83
2018-03-15T05:13:25.034Z,19.90
2018-03-15T05:15:52.578Z,19.23
2018-03-15T05:18:20.116Z,17.77
2018-03-15T05:20:47.676Z,19.17
2018-03-15T05:23:15.277Z,18.90
2018-03-15T05:25:42.802Z,19.80
2018-03-15T05:28:10.398Z,19.27
2018-03-15T05:30:37.929Z,20.50
2018-03-15T05:33:05.517Z,20.30
2018-03-15T05:35:33.073Z,21.87
2018-03-15T05:38:00.641Z,22.50
2018-03-15T05:40:28.162Z,23.50
2018-03-15T05:42:55.738Z,23.00
2018-03-15T05:45:23.282Z,23.30
2018-03-15T05:47:50.817Z,22.83
2018-03-15T05:50:18.449Z,23.00
2018-03-15T05:52:46.110Z,23.57
2018-03-15T05:55:13.776Z,25.17
2018-03-15T05:57:41.292Z,24.63
2018-03-15T06:00:08.821Z,25.90
2018-03-15T06:02:36.387Z,26.77
2018-03-15T06:05:03.910Z,24.37
2018-03-15T06:07:31.479Z,26.93
2018-03-15T06:09:59.127Z,27.20
2018-03-15T06:12:26.653Z,26.43
2018-03-15T06:14:54.249Z,27.07
2018-03-15T06:17:21.765Z,25.40
2018-03-15T06:19:49.296Z,26.77
2018-03-15T06:22:16.922Z,26.70
2018-03-15T06:24:44.448Z,25.63
2018-03-15T06:27:12.002Z,23.97
2018-03-15T06:29:39.532Z,25.10
2018-03-15T06:32:07.059Z,25.13
2018-03-15T06:34:34.614Z,25.77
2018-03-15T06:37:02.138Z,26.60
2018-03-15T06:39:29.674Z,25.13
2018-03-15T06:41:57.205Z,25.17
2018-03-15T06:44:24.742Z,24.97
2018-03-15T06:46:52.281Z,24.13
2018-03-15T06:49:19.813Z,25.13
2018-03-15T06:51:47.437Z,25.43
2018-03-15T06:54:14.995Z,25.80
2018-03-15T06:56:42.528Z,23.77
2018-03-15T06:59:10.086Z,24.90
2018-03-15T07:01:37.606Z,25.17
2018-03-15T07:04:05.121Z,24.27
2018-03-15T07:06:33.525Z,23.47
2018-03-15T07:09:01.078Z,24.43
2018-03-15T07:11:28.596Z,22.97
2018-03-15T07:13:56.189Z,25.00
2018-03-15T07:16:23.710Z,24.43
2018-03-15T07:18:51.244Z,24.50
2018-03-15T07:21:18.773Z,24.73
2018-03-15T07:23:46.336Z,23.40
2018-03-15T07:26:13.980Z,23.33
2018-03-15T07:28:41.505Z,24.10
2018-03-15T07:31:10.121Z,23.77
2018-03-15T07:33:37.644Z,22.17
2018-03-15T07:36:05.214Z,22.77
2018-03-15T07:38:32.743Z,21.57
2018-03-15T07:41:00.373Z,22.43
2018-03-15T07:43:27.930Z,22.47
2018-03-15T07:45:55.466Z,21.47
2018-03-15T07:48:23.009Z,20.57
2018-03-15T07:50:50.561Z,21.50
2018-03-15T07:53:18.099Z,22.30
2018-03-15T07:55:45.635Z,21.80
2018-03-15T07:58:13.197Z,20.33
2018-03-15T08:00:40.793Z,22.20
2018-03-15T08:03:08.362Z,20.17
2018-03-15T08:05:35.962Z,20.10
2018-03-15T08:08:03.489Z,20.13
2018-03-15T08:10:31.126Z,20.33
2018-03-15T08:12:58.653Z,21.30
2018-03-15T08:15:26.173Z,20.20
2018-03-15T08:17:53.778Z,20.83
2018-03-15T08:20:21.334Z,20.70
2018-03-15T08:22:48.895Z,21.53
2018-03-15T08:25:16.413Z,22.00
2018-03-15T08:27:43.974Z,21.13
2018-03-15T08:30:11.538Z,21.63
2018-03-15T08:32:39.077Z,21.03
2018-03-15T08:35:06.685Z,21.23
2018-03-15T08:37:35.008Z,21.17
2018-03-15T08:40:02.656Z,21.00
2018-03-15T08:42:30.198Z,21.00
2018-03-15T08:44:57.753Z,22.30
2018-03-15T08:47:25.274Z,21.23
2018-03-15T08:49:52.865Z,22.43
2018-03-15T08:52:20.414Z,21.73
2018-03-15T08:54:47.934Z,22.27
2018-03-15T08:57:15.462Z,21.97
2018-03-15T08:59:43.123Z,21.63
2018-03-15T09:02:10.874Z,21.73
2018-03-15T09:04:39.069Z,21.27
2018-03-15T09:07:06.006Z,20.80
2018-03-15T09:09:33.567Z,21.77
2018-03-15T09:12:01.113Z,21.23
2018-03-15T09:14:28.787Z,21.40
2018-03-15T09:16:56.319Z,20.93
2018-03-15T09:19:23.842Z,19.97
2018-03-15T09:21:51.394Z,20.50
2018-03-15T09:24:18.927Z,20.83
2018-03-15T09:26:46.484Z,20.43
2018-03-15T09:29:14.045Z,18.80
2018-03-15T09:31:41.569Z,20.13
2018-03-15T09:34:09.130Z,20.27
2018-03-15T09:36:36.689Z,21.03
2018-03-15T09:39:04.254Z,18.63
2018-03-15T09:41:31.846Z,20.23
2018-03-15T09:43:59.444Z,19.40
2018-03-15T09:46:27.087Z,19.97
2018-03-15T09:48:54.642Z,19.27
2018-03-15T09:51:22.275Z,18.57
2018-03-15T09:53:49.813Z,19.83
2018-03-15T09:56:17.390Z,19.43
2018-03-15T09:58:45.038Z,19.60
2018-03-15T10:01:12.625Z,20.27
2018-03-15T10:03:40.293Z,19.07
2018-03-15T10:06:07.862Z,19.40
2018-03-15T10:08:35.430Z,20.03
2018-03-15T10:11:03.075Z,19.23
2018-03-15T10:13:30.619Z,19.53
2018-03-15T10:15:58.226Z,19.33
2018-03-15T10:18:25.796Z,20.30
2018-03-15T10:20:53.429Z,20.70
2018-03-15T10:23:20.973Z,18.23
2018-03-15T10:25:48.520Z,20.80
2018-03-15T10:28:16.102Z,22.07
2018-03-15T10:30:43.746Z,20.47
2018-03-15T10:33:16.846Z,21.33
2018-03-15T10:35:44.407Z,20.93
2018-03-15T10:38:11.972Z,21.67
2018-03-15T10:40:39.526Z,20.90
2018-03-15T10:43:07.118Z,21.77
2018-03-15T10:45:34.653Z,19.73
2018-03-15T10:48:02.327Z,20.57
2018-03-15T10:50:29.932Z,18.57
2018-03-15T10:52:57.529Z,19.23
2018-03-15T10:55:25.071Z,18.60
2018-03-15T10:57:52.658Z,19.83
2018-03-15T11:03:29.660Z,19.13
2018-03-15T11:06:02.933Z,19.03
2018-03-15T11:08:37.107Z,18.60
2018-03-15T11:11:04.743Z,18.70
2018-03-15T11:13:32.381Z,20.17
2018-03-15T11:15:59.888Z,19.33
2018-03-15T11:18:27.451Z,17.90
2018-03-15T11:20:55.049Z,19.03
2018-03-15T11:23:22.630Z,18.23
2018-03-15T11:25:50.189Z,19.00
2018-03-15T11:28:17.733Z,17.57
2018-03-15T11:30:45.520Z,18.50
2018-03-15T11:33:13.105Z,18.27
2018-03-15T11:35:40.671Z,20.03
2018-03-15T11:38:08.225Z,18.87
2018-03-15T11:40:35.794Z,18.03
2018-03-15T11:43:03.349Z,17.70
2018-03-15T11:45:30.916Z,18.80
2018-03-15T11:47:58.468Z,16.57
2018-03-15T11:50:26.201Z,17.30
2018-03-15T11:52:53.761Z,18.17
2018-03-15T11:55:21.285Z,17.23
2018-03-15T11:57:48.856Z,18.43
2018-03-15T12:00:16.398Z,18.37
2018-03-15T12:02:44.000Z,17.10
2018-03-15T12:05:11.561Z,17.47
2018-03-15T12:07:39.248Z,18.07
2018-03-15T12:10:06.898Z,17.20
2018-03-15T12:12:34.447Z,17.50
2018-03-15T12:15:02.013Z,16.80
2018-03-15T12:17:29.667Z,17.57
2018-03-15T12:19:57.228Z,16.57
2018-03-15T12:22:24.767Z,18.03
2018-03-15T12:24:52.349Z,17.33
2018-03-15T12:27:19.881Z,16.53
2018-03-15T12:29:47.472Z,17.13
2018-03-15T12:32:15.028Z,17.97
2018-03-15T12:34:42.588Z,16.10
2018-03-15T12:37:10.146Z,15.23
2018-03-15T12:39:37.704Z,14.93
2018-03-15T12:42:05.294Z,14.50
2018-03-15T12:44:32.948Z,15.73
2018-03-15T12:47:00.592Z,15.17
2018-03-15T12:49:28.118Z,14.67
2018-03-15T12:51:55.637Z,14.17
2018-03-15T12:54:23.165Z,14.17
2018-03-15T12:56:50.698Z,14.07
2018-03-15T12:59:18.332Z,14.80
2018-03-15T13:01:45.873Z,15.30
2018-03-15T13:04:13.409Z,14.53
2018-03-15T13:06:40.966Z,13.43
2018-03-15T13:09:08.534Z,13.63
2018-03-15T13:11:36.063Z,14.83
2018-03-15T13:14:03.666Z,14.23
2018-03-15T13:16:31.212Z,14.17
2018-03-15T13:18:58.741Z,13.73
2018-03-15T13:21:26.318Z,13.73
2018-03-15T13:23:53.877Z,13.77
2018-03-15T13:26:21.419Z,13.83
2018-03-15T13:28:48.944Z,14.80
2018-03-15T13:31:16.502Z,13.77
2018-03-15T13:33:44.086Z,14.20
2018-03-15T13:36:11.619Z,14.27
2018-03-15T13:38:39.247Z,13.20
2018-03-15T13:41:06.769Z,13.60
2018-03-15T13:43:34.327Z,13.10
2018-03-15T13:46:01.852Z,13.17
2018-03-15T13:48:29.533Z,13.40
2018-03-15T13:50:57.093Z,14.40
2018-03-15T13:53:24.700Z,14.67
2018-03-15T13:55:52.241Z,14.13
2018-03-15T13:58:19.848Z,15.10
2018-03-15T14:00:47.394Z,13.57
2018-03-15T14:03:14.955Z,12.87
2018-03-15T14:05:42.618Z,14.67
2018-03-15T14:08:10.195Z,13.80
2018-03-15T14:10:37.845Z,14.23
2018-03-15T14:13:05.366Z,13.93
2018-03-15T14:15:32.885Z,14.20
2018-03-15T14:18:00.417Z,14.37
2018-03-15T14:20:28.009Z,15.83
2018-03-15T14:22:55.584Z,13.97
2018-03-15T14:25:23.270Z,14.23
2018-03-15T14:27:50.804Z,14.30
2018-03-15T14:30:18.349Z,14.90
2018-03-15T14:32:45.865Z,15.83
2018-03-15T14:35:13.389Z,15.67
2018-03-15T14:37:40.940Z,14.60
2018-03-15T14:40:08.522Z,14.67
2018-03-15T14:42:36.325Z,15.27
2018-03-15T14:45:03.988Z,15.93
2018-03-15T14:47:31.524Z,15.97
2018-03-15T14:49:59.619Z,15.27
2018-03-15T14:52:27.145Z,16.37
2018-03-15T14:54:54.694Z,15.83
2018-03-15T14:57:22.275Z,15.70
2018-03-15T14:59:49.859Z,15.43
2018-03-15T15:02:17.386Z,14.90
2018-03-15T15:04:44.983Z,15.70
2018-03-15T15:07:12.541Z,15.10
2018-03-15T15:09:40.053Z,15.00
2018-03-15T15:12:07.658Z,16.03
2018-03-15T15:14:35.221Z,17.30
2018-03-15T15:17:02.883Z,16.17
2018-03-15T15:19:30.612Z,16.53
2018-03-15T15:21:58.138Z,16.23
2018-03-15T15:24:25.675Z,15.37
2018-03-15T15:26:53.362Z,14.43
2018-03-15T15:29:20.888Z,15.67
2018-03-15T15:31:48.447Z,16.03
2018-03-15T15:34:15.984Z,15.83
2018-03-15T15:36:43.498Z,15.40
2018-03-15T15:39:11.024Z,14.77
2018-03-15T15:41:38.558Z,14.83
2018-03-15T15:44:06.144Z,16.33
2018-03-15T15:46:34.114Z,16.17
2018-03-15T15:49:01.785Z,16.67
2018-03-15T15:51:29.306Z,15.13
2018-03-15T15:53:56.931Z,16.13
2018-03-15T15:56:24.470Z,15.70
2018-03-15T15:58:52.013Z,15.60
2018-03-15T16:01:19.648Z,17.40
2018-03-15T16:03:47.210Z,15.73
2018-03-15T16:06:14.738Z,15.83
2018-03-15T16:08:42.264Z,16.20
2018-03-15T16:11:09.814Z,16.47
2018-03-15T16:13:37.347Z,16.20
2018-03-15T16:16:04.936Z,17.30
2018-03-15T16:18:32.497Z,16.93
2018-03-15T16:21:00.093Z,17.63
2018-03-15T16:23:27.668Z,17.50
2018-03-15T16:25:55.234Z,16.77
2018-03-15T16:28:22.767Z,15.27
2018-03-15T16:30:50.394Z,16.10
2018-03-15T16:33:17.937Z,15.70
2018-03-15T16:35:45.473Z,16.63
2018-03-15T16:38:13.032Z,16.17
2018-03-15T16:40:40.561Z,16.97
2018-03-15T16:43:08.106Z,16.60
2018-03-15T16:45:35.659Z,16.70
2018-03-15T16:48:03.219Z,15.80
2018-03-15T16:50:30.776Z,15.63
2018-03-15T16:52:58.368Z,15.93
2018-03-15T16:55:25.937Z,16.17
2018-03-15T16:57:53.467Z,15.87
2018-03-15T17:00:20.985Z,17.03
2018-03-15T17:02:48.513Z,16.67
2018-03-15T17:05:16.021Z,16.33
2018-03-15T17:07:43.603Z,17.00
2018-03-15T17:10:11.159Z,17.73
2018-03-15T17:12:38.671Z,17.43
2018-03-15T17:15:06.672Z,18.03
2018-03-15T17:17:34.192Z,16.97
2018-03-15T17:20:01.742Z,18.40
2018-03-15T17:22:29.275Z,17.27
2018-03-15T17:24:56.832Z,17.63
2018-03-15T17:27:24.369Z,18.30
2018-03-15T17:29:52.054Z,17.77
2018-03-15T17:32:19.589Z,18.33
2018-03-15T17:34:47.113Z,19.17
2018-03-15T17:37:14.725Z,19.30
2018-03-15T17:39:42.417Z,18.50
2018-03-15T17:42:10.045Z,19.90
2018-03-15T17:44:37.575Z,18.83
2018-03-15T17:47:05.168Z,18.93
2018-03-15T17:49:32.736Z,19.53
2018-03-15T17:52:00.296Z,20.40
2018-03-15T17:54:27.963Z,18.80
2018-03-15T17:56:55.660Z,19.83
2018-03-15T17:59:23.254Z,19.20
2018-03-15T18:01:51.154Z,20.27
2018-03-15T18:04:18.707Z,21.53
2018-03-15T18:06:46.269Z,20.70
2018-03-15T18:09:13.833Z,21.13
2018-03-15T18:11:41.369Z,22.27
2018-03-15T18:14:08.902Z,21.53
2018-03-15T18:16:36.429Z,21.80
2018-03-15T18:19:03.949Z,22.03
2018-03-15T18:21:31.494Z,21.70
2018-03-15T18:23:59.009Z,22.17
2018-03-15T18:26:26.539Z,22.40
2018-03-15T18:28:54.070Z,21.57
2018-03-15T18:31:21.611Z,22.13
2018-03-15T18:33:49.173Z,22.30
2018-03-15T18:36:16.780Z,24.23
2018-03-15T18:38:44.322Z,23.10
2018-03-15T18:41:11.895Z,23.10
2018-03-15T18:43:39.414Z,24.60
2018-03-15T18:46:06.942Z,23.10
2018-03-15T18:48:34.566Z,22.93
2018-03-15T18:51:02.111Z,25.07
2018-03-15T18:53:29.629Z,23.40
2018-03-15T18:55:57.164Z,23.40
2018-03-15T18:58:24.702Z,23.03
2018-03-15T19:00:52.279Z,25.03
2018-03-15T19:03:19.834Z,25.30
2018-03-15T19:05:47.367Z,24.93
2018-03-15T19:08:14.890Z,25.60
2018-03-15T19:10:42.453Z,25.57
2018-03-15T19:13:10.051Z,27.57
2018-03-15T19:15:37.658Z,25.17
2018-03-15T19:18:05.195Z,26.07
2018-03-15T19:20:32.754Z,26.27
2018-03-15T19:23:00.290Z,26.07
2018-03-15T19:25:27.809Z,27.53
2018-03-15T19:27:55.336Z,29.00
2018-03-15T19:30:22.894Z,28.17
2018-03-15T19:32:50.456Z,28.60
2018-03-15T19:35:17.981Z,29.27
2018-03-15T19:37:45.582Z,28.77
2018-03-15T19:40:13.121Z,29.40
2018-03-15T19:42:40.725Z,29.53
2018-03-15T19:45:08.261Z,28.27
2018-03-15T19:47:35.820Z,28.90
2018-03-15T19:50:03.373Z,29.90
2018-03-15T19:52:30.920Z,28.53
2018-03-15T19:54:58.481Z,29.60
2018-03-15T19:57:26.058Z,28.00
2018-03-15T19:59:53.581Z,28.83
2018-03-15T20:02:21.120Z,28.13
2018-03-15T20:04:48.648Z,28.70
2018-03-15T20:07:16.249Z,28.00
2018-03-15T20:09:43.721Z,29.60
2018-03-15T20:12:11.281Z,28.73
2018-03-15T20:14:38.817Z,29.43
2018-03-15T20:17:06.437Z,29.67
2018-03-15T20:19:33.972Z,30.30
2018-03-15T20:22:01.499Z,28.80
2018-03-15T20:24:30.963Z,30.50
2018-03-15T20:26:58.496Z,29.83
2018-03-15T20:29:26.022Z,31.03
2018-03-15T20:31:53.872Z,29.60
2018-03-15T20:34:21.721Z,30.20
2018-03-15T20:36:49.271Z,30.57
2018-03-15T20:39:22.343Z,30.80
2018-03-15T20:41:49.872Z,31.03
2018-03-15T20:44:19.018Z,29.83
2018-03-15T20:46:52.191Z,31.83
2018-03-15T20:49:20.280Z,31.23
2018-03-15T20:51:47.845Z,32.77
2018-03-15T20:54:16.015Z,33.07
2018-03-15T20:56:43.985Z,33.30
2018-03-15T20:59:11.853Z,32.03
2018-03-15T21:01:39.381Z,30.93
2018-03-15T21:04:07.200Z,32.90
2018-03-15T21:06:34.852Z,32.20
2018-03-15T21:09:02.404Z,32.60
2018-03-15T21:11:30.055Z,32.27
2018-03-15T21:13:57.797Z,33.07
2018-03-15T21:16:25.361Z,33.87
2018-03-15T21:18:52.913Z,33.90
2018-03-15T21:21:20.444Z,35.20
2018-03-15T21:23:48.102Z,33.63
2018-03-15T21:26:15.722Z,33.33
2018-03-15T21:28:43.236Z,33.87
2018-03-15T21:31:10.780Z,34.17
2018-03-15T21:33:38.306Z,34.30
2018-03-15T21:36:05.831Z,33.27
2018-03-15T21:38:33.348Z,32.30
2018-03-15T21:41:00.937Z,35.17
2018-03-15T21:43:28.544Z,34.63
2018-03-15T21:45:56.312Z,35.33
2018-03-15T21:48:23.865Z,36.17
2018-03-15T21:50:51.395Z,34.77
2018-03-15T21:53:18.922Z,34.93
2018-03-15T21:55:46.553Z,35.60
2018-03-15T21:58:14.072Z,35.37
2018-03-15T22:00:41.602Z,35.33
2018-03-15T22:03:09.170Z,36.13
2018-03-15T22:05:36.720Z,34.93
2018-03-15T22:08:04.252Z,35.13
2018-03-15T22:10:31.764Z,36.60
2018-03-15T22:12:59.351Z,35.67
2018-03-15T22:15:26.885Z,34.47
2018-03-15T22:17:54.598Z,37.03
2018-03-15T22:20:22.154Z,35.20
2018-03-15T22:22:49.812Z,34.43
2018-03-15T22:25:17.460Z,36.30
2018-03-15T22:27:45.039Z,37.50
2018-03-15T22:30:12.582Z,37.50
2018-03-15T22:32:40.152Z,37.50
2018-03-15T22:35:07.687Z,36.33
2018-03-15T22:37:35.202Z,38.43
2018-03-15T22:40:02.771Z,37.17
2018-03-15T22:42:30.287Z,37.90
2018-03-15T22:44:57.853Z,38.60
2018-03-15T22:47:25.426Z,39.00
2018-03-15T22:49:52.958Z,34.87
2018-03-15T22:52:20.538Z,34.30
2018-03-15T22:54:48.078Z,37.07
2018-03-15T22:57:15.594Z,34.67
2018-03-15T22:59:43.212Z,37.13
2018-03-15T23:02:10.814Z,37.60
2018-03-15T23:04:38.332Z,36.83
2018-03-15T23:07:06.918Z,38.20
2018-03-15T23:09:34.614Z,37.37
2018-03-15T23:12:02.139Z,37.17
2018-03-15T23:14:29.695Z,38.60
2018-03-15T23:16:57.226Z,36.57
2018-03-15T23:19:24.770Z,38.17
2018-03-15T23:21:52.687Z,38.20
2018-03-15T23:24:20.227Z,37.63
2018-03-15T23:26:47.968Z,36.83
2018-03-15T23:29:15.502Z,36.67
2018-03-15T23:31:43.082Z,36.27
2018-03-15T23:34:10.614Z,37.93
2018-03-15T23:36:38.150Z,36.80
2018-03-15T23:39:05.709Z,35.63
2018-03-15T23:41:33.279Z,37.10
2018-03-15T23:44:00.834Z,35.03
2018-03-15T23:46:28.366Z,35.00
2018-03-15T23:48:55.902Z,35.00
2018-03-15T23:51:23.430Z,34.53
2018-03-15T23:53:50.963Z,33.77
2018-03-15T23:56:18.492Z,34.23
2018-03-15T23:58:46.444Z,32.93
